Time;durP1;ratioP1;P1;durP2;ratioP2;P2;SDS_P1;SDS_P2;PMS_P1;PMS_P2;Temp;Humidity;BMP_temperature;BMP_pressure;BME280_temperature;BME280_humidity;BME280_pressure;Samples;Min_cycle;Max_cycle;Signal;HPM_P1;HPM_P2
2023/08/30 00:04:45;;;;;;;5.28;4.78;;;;;;;16.42;100.00;99617.72;5105720;56;1139042;-69
2023/08/30 00:09:51;;;;;;;4.30;4.00;;;;;;;16.37;100.00;99610.23;5108638;56;1138595;-68
2023/08/30 00:14:57;;;;;;;6.67;4.13;;;;;;;16.34;100.00;99607.12;5090838;56;1138804;-68
2023/08/30 00:20:02;;;;;;;6.98;3.84;;;;;;;16.25;100.00;99613.00;4941613;57;1138904;-68
2023/08/30 00:25:09;;;;;;;4.07;3.77;;;;;;;16.24;100.00;99617.17;4981064;56;1138682;-67
2023/08/30 00:30:15;;;;;;;4.13;3.73;;;;;;;16.22;100.00;99621.35;5299472;54;1138688;-69
2023/08/30 00:35:20;;;;;;;4.13;3.73;;;;;;;16.27;100.00;99623.50;5276271;55;1138822;-69
2023/08/30 00:40:26;;;;;;;6.50;3.87;;;;;;;16.29;100.00;99620.98;5276615;55;1138721;-69
2023/08/30 00:45:32;;;;;;;4.88;4.04;;;;;;;16.29;100.00;99634.33;5276548;55;1138813;-67
2023/08/30 00:50:38;;;;;;;5.15;4.22;;;;;;;16.27;100.00;99631.50;5196802;55;1138910;-69
2023/08/30 00:55:44;;;;;;;3.97;3.67;;;;;;;16.29;100.00;99630.32;5204625;54;1138957;-69
2023/08/30 01:00:50;;;;;;;4.27;3.97;;;;;;;16.28;100.00;99628.66;5238795;54;1138907;-70
2023/08/30 01:05:56;;;;;;;7.10;3.97;;;;;;;16.25;100.00;99615.67;5148273;55;1138995;-67
2023/08/30 01:11:29;;;;;;;7.10;4.67;;;;;;;16.22;100.00;99617.85;5141356;55;1138713;-69
2023/08/30 01:16:37;;;;;;;5.05;4.60;;;;;;;16.19;100.00;99620.39;4892713;57;1138834;-66
2023/08/30 01:22:05;;;;;;;5.08;4.67;;;;;;;16.17;100.00;99614.41;4896993;57;1138634;-70
2023/08/30 01:27:13;;;;;;;4.90;4.50;;;;;;;16.18;100.00;99614.73;4878894;57;1138601;-67
2023/08/30 01:32:20;;;;;;;8.37;4.67;;;;;;;16.13;100.00;99606.42;4879370;57;1138848;-68
2023/08/30 01:37:26;;;;;;;6.67;5.03;;;;;;;16.10;100.00;99602.77;4898007;57;1138775;-68
2023/08/30 01:42:33;;;;;;;6.70;5.93;;;;;;;16.07;100.00;99601.27;4878960;57;1138756;-67
2023/08/30 01:47:43;;;;;;;7.30;5.93;;;;;;;16.09;100.00;99602.44;4880356;57;1138731;-69
2023/08/30 01:52:50;;;;;;;16.50;6.37;;;;;;;16.10;100.00;99595.59;4898013;57;1138872;-68
2023/08/30 01:57:55;;;;;;;11.23;6.53;;;;;;;16.06;100.00;99586.78;5014502;56;1140902;-68
2023/08/30 02:03:03;;;;;;;4.77;4.37;;;;;;;16.01;100.00;99578.00;5075233;55;1141025;-68
2023/08/30 02:08:17;;;;;;;10.47;5.70;;;;;;;16.01;100.00;99579.33;5232268;55;1139052;-70
2023/08/30 02:13:26;;;;;;;6.10;5.53;;;;;;;15.88;100.00;99575.08;4953772;57;1140935;-68
2023/08/30 02:18:32;;;;;;;9.83;7.67;;;;;;;15.79;100.00;99574.28;5058417;55;1138973;-67
2023/08/30 02:23:38;;;;;;;10.82;8.03;;;;;;;15.75;100.00;99572.13;4962696;56;1138801;-67
2023/08/30 02:28:43;;;;;;;14.43;7.40;;;;;;;15.72;100.00;99580.00;4982362;57;1140928;-71
2023/08/30 02:33:49;;;;;;;13.90;8.45;;;;;;;15.73;100.00;99580.83;4963595;57;1141063;-70
2023/08/30 02:38:54;;;;;;;11.70;8.47;;;;;;;15.70;100.00;99596.67;4998818;57;1140731;-71
2023/08/30 02:44:01;;;;;;;13.13;10.10;;;;;;;15.71;100.00;99602.34;5048146;57;1141019;-69
2023/08/30 02:49:06;;;;;;;11.17;8.87;;;;;;;15.77;100.00;99613.61;5057668;57;1142716;-64
2023/08/30 02:54:13;;;;;;;14.33;9.00;;;;;;;15.82;100.00;99611.77;5039015;57;1141034;-67
2023/08/30 02:59:18;;;;;;;12.33;9.48;;;;;;;15.87;100.00;99613.92;5045215;57;1141052;-65
2023/08/30 03:04:24;;;;;;;11.87;8.57;;;;;;;15.82;100.00;99604.60;5072255;56;1140983;-66
2023/08/30 03:09:31;;;;;;;17.07;8.33;;;;;;;15.74;100.00;99593.96;5063740;56;1140796;-65
2023/08/30 03:14:38;;;;;;;11.73;8.33;;;;;;;15.71;100.00;99587.67;4965701;58;1141296;-66
2023/08/30 03:19:43;;;;;;;9.85;7.75;;;;;;;15.72;100.00;99592.00;4993455;57;1140939;-66
2023/08/30 03:24:49;;;;;;;11.95;7.90;;;;;;;15.76;100.00;99599.13;4974223;58;1138672;-66
2023/08/30 03:29:57;;;;;;;12.83;7.70;;;;;;;15.82;100.00;99594.44;4972578;57;1140538;-66
2023/08/30 03:35:03;;;;;;;10.97;7.27;;;;;;;15.83;100.00;99598.27;4967839;58;1140874;-67
2023/08/30 03:40:09;;;;;;;7.70;6.13;;;;;;;15.81;100.00;99605.61;5062232;57;1140913;-65
2023/08/30 03:45:15;;;;;;;7.87;5.37;;;;;;;15.79;100.00;99592.95;5042633;57;1138669;-68
2023/08/30 03:50:21;;;;;;;5.93;4.03;;;;;;;15.74;100.00;99597.13;5041978;57;1138863;-67
2023/08/30 03:55:26;;;;;;;5.20;4.60;;;;;;;15.67;100.00;99589.52;4980723;57;1138852;-64
2023/08/30 04:00:34;;;;;;;3.40;3.03;;;;;;;15.59;100.00;99597.03;5141518;56;1145057;-65
2023/08/30 04:05:39;;;;;;;4.78;2.67;;;;;;;15.55;100.00;99594.41;5123348;56;1138839;-65
2023/08/30 04:10:47;;;;;;;2.40;2.30;;;;;;;15.49;100.00;99586.56;5117643;56;1138691;-68
2023/08/30 04:15:53;;;;;;;2.60;2.40;;;;;;;15.49;100.00;99587.06;5113660;56;1138808;-64
2023/08/30 04:21:02;;;;;;;4.23;2.40;;;;;;;15.46;100.00;99583.41;4961047;58;1139071;-69
2023/08/30 04:26:07;;;;;;;2.85;2.27;;;;;;;15.44;100.00;99590.73;5141138;56;1138821;-66
2023/08/30 04:31:13;;;;;;;5.07;2.53;;;;;;;15.43;100.00;99585.91;4980571;58;1138776;-67
2023/08/30 04:36:18;;;;;;;4.17;2.80;;;;;;;15.41;100.00;99588.45;5042451;57;1138751;-66
2023/08/30 04:41:24;;;;;;;3.30;2.90;;;;;;;15.38;100.00;99589.61;5042735;57;1138881;-68
2023/08/30 04:46:30;;;;;;;3.07;2.33;;;;;;;15.42;100.00;99588.27;5061830;57;1138809;-65
2023/08/30 04:51:35;;;;;;;2.20;2.07;;;;;;;15.48;100.00;99575.58;4881911;59;1138835;-66
2023/08/30 04:56:41;;;;;;;2.77;2.10;;;;;;;15.53;100.00;99576.89;4922908;58;1138630;-66
2023/08/30 05:01:48;;;;;;;5.80;4.90;;;;;;;15.52;100.00;99580.56;5027858;57;1138890;-66
2023/08/30 05:06:55;;;;;;;6.10;4.90;;;;;;;15.49;100.00;99581.23;4939261;58;1138685;-65
2023/08/30 05:12:01;;;;;;;6.57;4.43;;;;;;;15.45;100.00;99586.57;5031333;57;1138861;-66
2023/08/30 05:17:08;;;;;;;4.53;4.13;;;;;;;15.46;100.00;99592.73;4986686;56;1139028;-68
2023/08/30 05:22:14;;;;;;;9.10;4.83;;;;;;;15.43;100.00;99603.73;5056769;57;1139026;-68
2023/08/30 05:27:19;;;;;;;10.27;5.53;;;;;;;15.40;100.00;99612.92;5001302;57;1139025;-64
2023/08/30 05:32:26;;;;;;;5.67;4.97;;;;;;;15.39;100.00;99610.43;5060449;57;1140944;-69
2023/08/30 05:37:45;;;;;;;4.70;4.20;;;;;;;15.39;100.00;99602.44;5086076;56;1138696;-66
2023/08/30 05:43:08;;;;;;;6.17;5.15;;;;;;;15.43;100.00;99611.72;5033363;56;1138832;-70
2023/08/30 05:48:14;;;;;;;7.33;3.90;;;;;;;15.48;100.00;99617.38;5064750;57;1139031;-68
2023/08/30 05:53:19;;;;;;;3.97;3.10;;;;;;;15.48;100.00;99612.87;5048918;57;1138739;-67
2023/08/30 05:58:25;;;;;;;3.97;2.23;;;;;;;15.49;100.00;99614.55;5152640;56;1138813;-70
2023/08/30 06:03:31;;;;;;;2.70;1.90;;;;;;;15.45;100.00;99621.72;5118172;56;1138891;-68
2023/08/30 06:08:36;;;;;;;1.90;1.80;;;;;;;15.38;100.00;99612.27;5124173;56;1138864;-69
2023/08/30 06:13:42;;;;;;;1.98;1.87;;;;;;;15.36;100.00;99616.93;5055563;56;1138486;-68
2023/08/30 06:18:47;;;;;;;1.97;1.80;;;;;;;15.35;100.00;99623.26;4984114;56;1138845;-68
2023/08/30 06:23:53;;;;;;;3.67;3.35;;;;;;;15.32;100.00;99614.77;4999971;57;1138855;-69
2023/08/30 06:28:59;;;;;;;1.73;1.73;;;;;;;15.28;100.00;99614.27;4981264;56;1138892;-67
2023/08/30 06:34:04;;;;;;;1.73;1.63;;;;;;;15.27;100.00;99623.30;5009802;57;1138896;-66
2023/08/30 06:39:10;;;;;;;4.25;1.50;;;;;;;15.27;100.00;99616.63;5019059;57;1138564;-69
2023/08/30 06:44:16;;;;;;;1.37;1.23;;;;;;;15.34;100.00;99616.27;5038546;57;1138899;-67
2023/08/30 06:49:22;;;;;;;1.63;1.20;;;;;;;15.40;100.00;99614.76;5019243;57;1138650;-69
2023/08/30 06:54:27;;;;;;;0.60;0.60;;;;;;;15.44;100.00;99614.72;5004783;57;1138857;-66
2023/08/30 06:59:33;;;;;;;2.97;2.00;;;;;;;15.44;100.00;99615.55;5024014;57;1138655;-70
2023/08/30 07:04:39;;;;;;;0.90;0.90;;;;;;;15.51;100.00;99625.03;5081236;56;1138785;-70
2023/08/30 07:09:44;;;;;;;1.00;1.00;;;;;;;15.56;100.00;99636.05;5079060;56;1138963;-70
2023/08/30 07:14:50;;;;;;;1.67;0.78;;;;;;;15.54;100.00;99642.02;5175947;55;1138916;-68
2023/08/30 07:19:56;;;;;;;1.33;1.07;;;;;;;15.53;100.00;99654.18;5188088;56;1138867;-70
2023/08/30 07:25:03;;;;;;;3.80;1.50;;;;;;;15.57;100.00;99656.88;5188173;56;1139085;-69
2023/08/30 07:30:09;;;;;;;1.17;1.17;;;;;;;15.56;100.00;99664.04;5127170;56;1138695;-70
2023/08/30 07:35:15;;;;;;;0.93;0.80;;;;;;;15.57;100.00;99655.54;5166729;56;1138588;-67
2023/08/30 07:40:24;;;;;;;3.90;1.67;;;;;;;15.60;100.00;99657.84;5096337;56;1138431;-70
2023/08/30 07:45:27;;;;;;;2.47;2.27;;;;;;;15.67;100.00;99660.16;5125914;56;1138776;-66
2023/08/30 07:50:33;;;;;;;2.10;1.00;;;;;;;15.75;100.00;99657.44;5165806;56;1138349;-67
2023/08/30 07:55:40;;;;;;;2.52;0.60;;;;;;;15.77;100.00;99661.60;5147114;56;1149306;-70
2023/08/30 08:00:45;;;;;;;0.50;0.50;;;;;;;15.83;100.00;99666.25;5069065;56;1138756;-68
2023/08/30 08:05:51;;;;;;;0.62;0.55;;;;;;;15.87;100.00;99664.58;5194356;55;1138588;-69
2023/08/30 08:10:57;;;;;;;0.73;0.70;;;;;;;15.90;100.00;99669.55;5161606;55;1138892;-71
2023/08/30 08:16:02;;;;;;;1.40;0.90;;;;;;;15.89;100.00;99663.38;5138958;55;1139248;-70
2023/08/30 08:21:08;;;;;;;0.90;0.90;;;;;;;15.92;100.00;99656.88;5106112;55;1138568;-70
2023/08/30 08:26:14;;;;;;;0.83;0.63;;;;;;;15.97;100.00;99658.52;5159052;56;1138793;-69
2023/08/30 08:31:19;;;;;;;1.10;0.80;;;;;;;16.00;100.00;99654.18;5117326;55;1138793;-70
2023/08/30 08:36:25;;;;;;;0.67;0.67;;;;;;;16.03;100.00;99664.50;5083353;56;1138632;-68
2023/08/30 08:41:35;;;;;;;7.77;0.60;;;;;;;16.15;100.00;99669.27;5102211;56;1138637;-69
2023/08/30 08:46:42;;;;;;;0.20;0.20;;;;;;;16.16;100.00;99675.43;5081167;56;1138947;-70
2023/08/30 08:51:48;;;;;;;0.50;0.35;;;;;;;16.10;100.00;99684.95;5082088;56;1138774;-67
2023/08/30 08:56:54;;;;;;;0.62;0.50;;;;;;;15.98;100.00;99683.69;5096789;56;1138590;-69
2023/08/30 09:02:02;;;;;;;0.37;0.33;;;;;;;15.92;100.00;99685.70;5085224;56;1138559;-70
2023/08/30 09:07:09;;;;;;;1.90;0.83;;;;;;;15.88;100.00;99686.25;5076641;56;1138688;-68
2023/08/30 09:12:14;;;;;;;1.10;0.80;;;;;;;15.83;100.00;99687.59;5065318;57;1138791;-70
2023/08/30 09:17:20;;;;;;;0.47;0.47;;;;;;;15.77;100.00;99692.27;5179268;55;1138697;-71
2023/08/30 09:22:26;;;;;;;0.83;0.83;;;;;;;15.78;100.00;99697.93;5208488;55;1138805;-70
2023/08/30 09:27:41;;;;;;;0.80;0.73;;;;;;;15.78;100.00;99691.77;5127241;55;1138841;-67
2023/08/30 09:32:47;;;;;;;0.60;0.50;;;;;;;15.71;100.00;99693.47;5181038;55;1138824;-66
2023/08/30 09:37:53;;;;;;;2.65;0.50;;;;;;;15.67;100.00;99691.64;5167144;55;1138852;-68
2023/08/30 09:43:00;;;;;;;1.70;0.80;;;;;;;15.61;100.00;99686.16;5160707;55;1138588;-69
2023/08/30 09:48:07;;;;;;;0.70;0.70;;;;;;;15.59;100.00;99692.98;5120823;55;1138717;-69
2023/08/30 09:53:15;;;;;;;0.60;0.50;;;;;;;15.67;100.00;99694.31;5180325;55;1138898;-68
2023/08/30 09:58:27;;;;;;;0.50;0.50;;;;;;;15.70;100.00;99701.97;5207010;55;1139251;-70
2023/08/30 10:03:33;;;;;;;3.40;0.50;;;;;;;15.77;100.00;99693.59;5156654;55;1138891;-71
2023/08/30 10:08:40;;;;;;;0.83;0.60;;;;;;;15.73;100.00;99692.80;5180613;55;1139173;-72
2023/08/30 10:13:46;;;;;;;0.68;0.60;;;;;;;15.73;100.00;99702.14;5143713;55;1138751;-68
2023/08/30 10:18:56;;;;;;;1.05;0.80;;;;;;;15.77;100.00;99698.93;5121613;55;1138975;-69
2023/08/30 10:24:03;;;;;;;0.85;0.62;;;;;;;15.75;100.00;99700.94;5129569;55;1138894;-69
2023/08/30 10:29:09;;;;;;;0.73;0.67;;;;;;;15.77;100.00;99696.27;5203415;55;1138855;-69
2023/08/30 10:34:19;;;;;;;0.70;0.70;;;;;;;15.81;100.00;99700.76;5209413;55;1138649;-69
2023/08/30 10:39:36;;;;;;;0.97;0.50;;;;;;;15.83;100.00;99697.42;5208282;55;1138722;-67
2023/08/30 10:45:07;;;;;;;1.07;0.60;;;;;;;15.88;100.00;99694.25;5229036;55;1138702;-68
2023/08/30 10:50:14;;;;;;;0.53;0.53;;;;;;;15.89;100.00;99693.24;5136554;55;1138897;-67
2023/08/30 10:55:22;;;;;;;0.80;0.53;;;;;;;15.92;100.00;99695.03;5138617;55;1138629;-70
2023/08/30 11:00:31;;;;;;;2.10;0.50;;;;;;;15.96;100.00;99687.53;5229350;55;1139058;-70
2023/08/30 11:05:36;;;;;;;0.97;0.50;;;;;;;15.94;100.00;99693.03;5287071;54;1138619;-70
2023/08/30 11:10:42;;;;;;;1.00;0.50;;;;;;;16.01;100.00;99695.35;5300712;54;1138582;-69
2023/08/30 11:15:48;;;;;;;0.35;0.20;;;;;;;16.09;100.00;99704.63;5247033;54;1138573;-68
2023/08/30 11:21:00;;;;;;;0.77;0.30;;;;;;;16.09;100.00;99707.30;5190791;55;1138562;-66
2023/08/30 11:26:08;;;;;;;1.20;0.40;;;;;;;16.07;100.00;99706.64;5175371;55;1138524;-71
2023/08/30 11:31:23;;;;;;;2.23;0.30;;;;;;;16.13;100.00;99703.28;5177737;55;1139136;-69
2023/08/30 11:36:31;;;;;;;0.67;0.20;;;;;;;16.13;100.00;99711.29;5191411;55;1138909;-69
2023/08/30 11:41:38;;;;;;;1.13;0.67;;;;;;;16.02;100.00;99712.19;5157019;55;1138399;-71
2023/08/30 11:46:44;;;;;;;0.20;0.20;;;;;;;15.93;100.00;99719.87;5188766;55;1138464;-68
2023/08/30 11:51:50;;;;;;;0.40;0.40;;;;;;;15.87;100.00;99723.25;5229708;55;1138742;-71
2023/08/30 11:56:56;;;;;;;0.42;0.42;;;;;;;15.76;100.00;99717.27;5209081;55;1138829;-71
2023/08/30 12:02:01;;;;;;;1.30;0.30;;;;;;;15.65;100.00;99716.30;5221118;54;1138813;-70
2023/08/30 12:07:07;;;;;;;0.50;0.47;;;;;;;15.63;100.00;99712.98;5300556;54;1138732;-69
2023/08/30 12:12:13;;;;;;;2.57;0.37;;;;;;;15.60;100.00;99721.30;5320583;54;1138974;-69
2023/08/30 12:17:18;;;;;;;0.40;0.40;;;;;;;15.60;100.00;99720.48;5194427;54;1138441;-70
2023/08/30 12:22:24;;;;;;;0.50;0.50;;;;;;;15.64;100.00;99720.47;5137052;55;1138870;-70
2023/08/30 12:27:30;;;;;;;0.67;0.50;;;;;;;15.76;100.00;99721.77;5216291;55;1138629;-70
2023/08/30 12:32:35;;;;;;;2.80;0.60;;;;;;;15.89;100.00;99719.37;5097288;57;1139064;-68
2023/08/30 12:37:41;;;;;;;1.10;0.40;;;;;;;15.93;100.00;99713.20;5098153;57;1138497;-69
2023/08/30 12:42:47;;;;;;;0.78;0.35;;;;;;;15.93;100.00;99724.70;5117918;57;1138592;-67
2023/08/30 12:47:53;;;;;;;3.72;0.93;;;;;;;15.89;100.00;99731.38;5121139;55;1138782;-69
2023/08/30 12:52:58;;;;;;;1.60;0.50;;;;;;;15.83;100.00;99728.92;5121790;56;1138689;-70
2023/08/30 12:58:04;;;;;;;1.43;0.57;;;;;;;15.78;100.00;99727.76;5097904;55;1138956;-69
2023/08/30 13:03:10;;;;;;;0.63;0.63;;;;;;;15.75;100.00;99739.59;5092530;56;1138938;-69
2023/08/30 13:08:15;;;;;;;2.50;0.70;;;;;;;15.72;100.00;99730.62;5143269;55;1138665;-67
2023/08/30 13:13:22;;;;;;;0.60;0.60;;;;;;;15.74;100.00;99727.27;5131242;56;1138818;-69
2023/08/30 13:18:27;;;;;;;0.37;0.30;;;;;;;15.78;100.00;99721.92;5076396;56;1138679;-67
2023/08/30 13:23:33;;;;;;;0.40;0.40;;;;;;;15.74;100.00;99720.59;5141606;55;1138898;-71
2023/08/30 13:28:38;;;;;;;1.20;0.40;;;;;;;15.75;100.00;99723.59;5140844;55;1138802;-69
2023/08/30 13:33:44;;;;;;;0.87;0.40;;;;;;;15.90;100.00;99716.21;5255661;54;1138587;-68
2023/08/30 13:38:49;;;;;;;2.75;0.35;;;;;;;15.93;100.00;99710.04;5222144;55;1138803;-70
2023/08/30 13:43:55;;;;;;;1.37;0.47;;;;;;;15.99;100.00;99700.52;5217263;54;1138756;-68
2023/08/30 13:49:01;;;;;;;0.33;0.30;;;;;;;16.11;100.00;99701.80;4994355;57;1138825;-67
2023/08/30 13:54:06;;;;;;;2.93;0.40;;;;;;;16.21;100.00;99696.23;4988243;56;1138641;-68
2023/08/30 13:59:12;;;;;;;1.65;0.30;;;;;;;16.16;100.00;99693.61;5053558;56;1138898;-67
2023/08/30 14:04:18;;;;;;;1.27;0.23;;;;;;;16.15;100.00;99699.11;5308247;54;1138871;-67
2023/08/30 14:09:24;;;;;;;0.40;0.40;;;;;;;16.18;100.00;99705.44;5288241;54;1138656;-69
2023/08/30 14:14:29;;;;;;;3.50;0.37;;;;;;;16.16;100.00;99709.61;5284491;54;1138810;-67
2023/08/30 14:19:36;;;;;;;0.10;0.10;;;;;;;16.04;100.00;99704.31;5238138;54;1138697;-67
2023/08/30 14:24:42;;;;;;;1.70;0.42;;;;;;;16.04;100.00;99708.84;5251479;54;1138885;-70
2023/08/30 14:29:48;;;;;;;3.58;1.20;;;;;;;16.18;100.00;99701.44;5212946;54;1138792;-68
2023/08/30 14:34:54;;;;;;;1.25;0.80;;;;;;;16.38;100.00;99703.14;5252450;54;1138843;-69
2023/08/30 14:39:59;;;;;;;0.50;0.40;;;;;;;16.59;100.00;99710.52;5231788;54;1138529;-72
2023/08/30 14:45:06;;;;;;;1.70;0.30;;;;;;;16.62;100.00;99707.00;5251844;54;1138390;-68
2023/08/30 14:50:11;;;;;;;0.72;0.20;;;;;;;16.60;100.00;99718.36;5266088;54;1138723;-70
2023/08/30 14:55:17;;;;;;;0.47;0.47;;;;;;;16.44;100.00;99717.13;5176124;54;1139103;-70
2023/08/30 15:00:23;;;;;;;0.70;0.70;;;;;;;16.33;100.00;99719.70;5217769;54;1138909;-68
2023/08/30 15:05:28;;;;;;;1.83;0.60;;;;;;;16.34;100.00;99713.86;5301406;54;1138871;-68
2023/08/30 15:10:34;;;;;;;2.02;0.70;;;;;;;16.30;100.00;99714.70;5295811;55;1138884;-67
2023/08/30 15:15:40;;;;;;;0.67;0.67;;;;;;;16.32;100.00;99718.03;5223712;55;1138546;-70
2023/08/30 15:20:47;;;;;;;0.77;0.70;;;;;;;16.32;100.00;99707.86;5276086;53;1138885;-68
2023/08/30 15:25:53;;;;;;;3.65;1.30;;;;;;;16.27;100.00;99705.71;5293065;55;1138815;-68
2023/08/30 15:30:58;;;;;;;0.78;0.78;;;;;;;16.23;100.00;99708.89;5211583;54;1139101;-70
2023/08/30 15:36:04;;;;;;;1.50;0.87;;;;;;;16.17;100.00;99715.28;5188878;55;1138878;-67
2023/08/30 15:41:13;;;;;;;1.67;0.60;;;;;;;16.09;100.00;99720.64;5196971;54;1138983;-67
2023/08/30 15:46:18;;;;;;;0.60;0.50;;;;;;;16.06;100.00;99720.14;5218482;54;1138899;-69
2023/08/30 15:51:24;;;;;;;0.30;0.30;;;;;;;16.08;100.00;99721.64;5209492;54;1138799;-70
2023/08/30 15:56:30;;;;;;;0.20;0.20;;;;;;;16.10;100.00;99722.80;5246188;55;1138899;-69
2023/08/30 16:01:35;;;;;;;0.30;0.30;;;;;;;16.08;100.00;99730.98;5299002;54;1138963;-69
2023/08/30 16:06:42;;;;;;;1.30;0.73;;;;;;;16.08;100.00;99727.47;5246191;54;1138713;-67
2023/08/30 16:11:47;;;;;;;0.87;0.70;;;;;;;16.04;100.00;99725.65;5204336;55;1138806;-67
2023/08/30 16:16:53;;;;;;;1.25;1.25;;;;;;;16.05;100.00;99733.15;5211920;55;1138911;-68
2023/08/30 16:21:58;;;;;;;3.80;1.10;;;;;;;16.06;100.00;99727.64;5190566;55;1138951;-67
2023/08/30 16:27:04;;;;;;;3.13;0.90;;;;;;;16.09;100.00;99728.64;5277660;54;1138696;-67
2023/08/30 16:32:10;;;;;;;2.50;0.57;;;;;;;16.13;100.00;99723.30;5276054;54;1138733;-68
2023/08/30 16:37:16;;;;;;;3.30;0.70;;;;;;;16.13;100.00;99741.14;5300719;54;1138772;-67
2023/08/30 16:42:22;;;;;;;1.57;0.83;;;;;;;16.12;100.00;99745.64;5234222;54;1138659;-67
2023/08/30 16:47:28;;;;;;;0.80;0.80;;;;;;;16.12;100.00;99753.64;5276134;54;1138937;-67
2023/08/30 16:52:33;;;;;;;1.07;1.00;;;;;;;16.11;100.00;99749.81;5282345;54;1138656;-67
2023/08/30 16:57:39;;;;;;;2.53;1.00;;;;;;;16.07;100.00;99753.31;5226652;54;1138620;-67
2023/08/30 17:02:47;;;;;;;2.63;0.60;;;;;;;16.06;100.00;99763.66;5219887;54;1138727;-70
2023/08/30 17:07:54;;;;;;;0.60;0.60;;;;;;;16.02;100.00;99766.86;5287564;54;1138737;-68
2023/08/30 17:13:00;;;;;;;1.37;0.65;;;;;;;15.91;100.00;99781.38;5270903;54;1138554;-67
2023/08/30 17:18:06;;;;;;;1.13;0.50;;;;;;;15.85;100.00;99788.75;5277601;54;1138819;-68
2023/08/30 17:23:11;;;;;;;2.53;1.20;;;;;;;15.83;100.00;99792.91;5272916;54;1139246;-68
2023/08/30 17:28:17;;;;;;;2.93;0.80;;;;;;;15.81;100.00;99786.08;5307649;54;1138820;-68
2023/08/30 17:33:22;;;;;;;4.93;1.47;;;;;;;15.85;100.00;99789.25;5286329;54;1138946;-67
2023/08/30 17:38:28;;;;;;;1.37;1.03;;;;;;;15.87;100.00;99794.75;5276196;55;1139171;-68
2023/08/30 17:43:35;;;;;;;4.53;2.80;;;;;;;15.97;100.00;99793.20;5216004;55;1138727;-70
2023/08/30 17:48:50;;;;;;;5.64;1.74;;;;;;;15.96;100.00;99790.20;5187153;53;1138882;-69
2023/08/30 17:53:56;;;;;;;3.60;1.87;;;;;;;15.96;100.00;99794.20;5226457;55;1138879;-67
2023/08/30 17:59:02;;;;;;;4.33;1.60;;;;;;;15.95;100.00;99792.55;5297741;54;1138966;-66
2023/08/30 18:04:08;;;;;;;1.70;1.43;;;;;;;15.93;100.00;99795.87;5256871;54;1138739;-67
2023/08/30 18:09:14;;;;;;;3.42;1.62;;;;;;;15.88;100.00;99796.91;5269946;54;1139018;-68
2023/08/30 18:14:20;;;;;;;4.80;1.90;;;;;;;15.83;100.00;99787.58;5078588;56;1138856;-67
2023/08/30 18:19:26;;;;;;;2.53;1.70;;;;;;;15.81;100.00;99790.91;5106571;56;1138981;-65
2023/08/30 18:24:32;;;;;;;6.90;3.33;;;;;;;15.78;100.00;99789.08;5022987;57;1138618;-66
2023/08/30 18:29:42;;;;;;;5.83;2.20;;;;;;;15.74;100.00;99799.25;5053277;56;1138972;-67
2023/08/30 18:34:45;;;;;;;2.40;2.20;;;;;;;15.73;100.00;99803.45;5074455;56;1138778;-68
2023/08/30 18:39:50;;;;;;;3.67;2.30;;;;;;;15.71;100.00;99794.28;5055216;56;1138737;-67
2023/08/30 18:44:56;;;;;;;4.67;2.08;;;;;;;15.70;100.00;99787.78;5170120;55;1138591;-67
2023/08/30 18:50:02;;;;;;;2.37;1.87;;;;;;;15.70;100.00;99783.28;5223140;55;1139213;-66
2023/08/30 18:55:09;;;;;;;2.10;1.90;;;;;;;15.73;100.00;99778.12;5157896;55;1138925;-67
2023/08/30 19:00:15;;;;;;;3.87;3.17;;;;;;;15.79;100.00;99771.58;5036305;56;1139174;-67
2023/08/30 19:05:21;;;;;;;7.90;2.83;;;;;;;15.85;100.00;99777.25;5056473;56;1138556;-66
2023/08/30 19:10:27;;;;;;;3.30;2.60;;;;;;;15.87;100.00;99784.08;5046662;56;1139338;-67
2023/08/30 19:15:33;;;;;;;2.55;2.12;;;;;;;15.91;100.00;99785.88;5052718;56;1138695;-67
2023/08/30 19:20:38;;;;;;;3.10;1.83;;;;;;;15.86;100.00;99782.41;5073221;56;1138968;-65
2023/08/30 19:25:44;;;;;;;4.67;1.50;;;;;;;15.76;100.00;99779.08;5052658;56;1138923;-66
2023/08/30 19:30:53;;;;;;;1.90;1.67;;;;;;;15.74;100.00;99781.92;5042241;56;1138719;-67
2023/08/30 19:35:58;;;;;;;5.75;1.87;;;;;;;15.83;100.00;99781.41;5158973;55;1138647;-66
2023/08/30 19:41:04;;;;;;;19.80;15.98;;;;;;;15.95;100.00;99786.70;5121371;56;1138701;-67
2023/08/30 19:46:09;;;;;;;12.03;10.73;;;;;;;16.05;100.00;99778.50;5034224;57;1143051;-67
2023/08/30 19:51:15;;;;;;;4.40;2.67;;;;;;;15.98;100.00;99780.20;5062832;56;1142984;-68
2023/08/30 19:56:21;;;;;;;5.60;1.93;;;;;;;15.85;100.00;99779.91;5043208;56;1138906;-67
2023/08/30 20:01:26;;;;;;;2.23;1.90;;;;;;;15.68;100.00;99784.45;5113691;56;1138742;-67
2023/08/30 20:06:32;;;;;;;4.80;1.80;;;;;;;15.53;100.00;99778.95;5145230;56;1138538;-67
2023/08/30 20:11:38;;;;;;;2.17;1.60;;;;;;;15.53;100.00;99786.94;5118113;56;1139052;-66
2023/08/30 20:16:45;;;;;;;2.63;1.47;;;;;;;15.53;100.00;99788.27;5045573;55;1138645;-67
2023/08/30 20:21:51;;;;;;;5.57;1.93;;;;;;;15.59;100.00;99788.94;5107113;56;1139053;-65
2023/08/30 20:26:56;;;;;;;2.65;1.75;;;;;;;15.63;100.00;99792.11;5101178;56;1138796;-67
2023/08/30 20:32:02;;;;;;;2.50;1.70;;;;;;;15.59;100.00;99794.77;5109792;55;1138996;-67
2023/08/30 20:37:08;;;;;;;6.43;2.07;;;;;;;15.44;100.00;99790.09;5013593;56;1138765;-66
2023/08/30 20:42:13;;;;;;;8.07;1.90;;;;;;;15.32;100.00;99792.77;5131853;56;1138932;-66
2023/08/30 20:47:19;;;;;;;6.47;1.93;;;;;;;15.26;100.00;99793.95;5005386;56;1138815;-67
2023/08/30 20:52:27;;;;;;;5.67;1.60;;;;;;;15.23;100.00;99792.45;5060797;56;1138762;-67
2023/08/30 20:57:32;;;;;;;3.03;1.50;;;;;;;15.17;100.00;99791.77;5070570;56;1138602;-67
2023/08/30 21:02:38;;;;;;;7.80;1.63;;;;;;;15.14;100.00;99781.45;4972109;57;1138773;-66
2023/08/30 21:07:44;;;;;;;4.40;1.67;;;;;;;15.25;100.00;99788.30;5022414;57;1138713;-67
2023/08/30 21:12:50;;;;;;;3.10;1.90;;;;;;;15.36;100.00;99791.95;5041600;57;1138655;-68
2023/08/30 21:17:56;;;;;;;5.83;1.80;;;;;;;15.39;100.00;99795.62;5021880;57;1138859;-67
2023/08/30 21:23:08;;;;;;;5.93;1.70;;;;;;;15.41;100.00;99795.78;5105025;56;1138814;-66
2023/08/30 21:28:09;;;;;;;5.80;3.33;;;;;;;15.46;100.00;99800.59;5021813;57;1138917;-67
2023/08/30 21:33:17;;;;;;;10.00;4.67;;;;;;;15.43;100.00;99799.09;5102761;56;1138821;-66
2023/08/30 21:38:23;;;;;;;4.20;3.10;;;;;;;15.31;100.00;99799.59;5105776;56;1140614;-67
2023/08/30 21:43:29;;;;;;;8.17;2.30;;;;;;;15.16;100.00;99804.76;5022978;56;1138637;-66
2023/08/30 21:48:35;;;;;;;5.10;2.33;;;;;;;15.09;100.00;99806.44;5042817;56;1138627;-64
2023/08/30 21:53:40;;;;;;;4.10;2.57;;;;;;;15.00;100.00;99803.41;5023067;56;1139045;-64
2023/08/30 21:58:46;;;;;;;2.73;2.07;;;;;;;14.88;100.00;99810.89;4941999;57;1138657;-65
2023/08/30 22:03:51;;;;;;;2.63;2.20;;;;;;;14.88;100.00;99818.87;5077020;56;1138797;-65
2023/08/30 22:08:58;;;;;;;5.62;2.00;;;;;;;14.97;100.00;99812.55;5023097;57;1138867;-67
2023/08/30 22:14:10;;;;;;;6.55;2.83;;;;;;;14.96;100.00;99823.40;5052771;56;1138972;-65
2023/08/30 22:19:11;;;;;;;3.03;2.73;;;;;;;14.88;100.00;99830.86;5117652;56;1138917;-66
2023/08/30 22:24:17;;;;;;;5.00;2.70;;;;;;;14.77;100.00;99824.52;5139363;56;1138830;-65
2023/08/30 22:29:23;;;;;;;8.03;3.20;;;;;;;14.71;100.00;99818.50;5023385;57;1138756;-66
2023/08/30 22:34:29;;;;;;;3.20;2.47;;;;;;;14.67;100.00;99819.31;5106535;56;1138962;-66
2023/08/30 22:39:34;;;;;;;4.83;2.87;;;;;;;14.69;100.00;99817.83;5042299;57;1138674;-66
2023/08/30 22:44:40;;;;;;;6.33;3.20;;;;;;;14.79;100.00;99811.88;5115480;56;1138926;-66
2023/08/30 22:49:46;;;;;;;6.20;2.83;;;;;;;14.91;100.00;99807.91;5130325;56;1138888;-67
2023/08/30 22:54:52;;;;;;;3.60;3.20;;;;;;;14.97;100.00;99813.89;5150243;56;1138614;-66
2023/08/30 22:59:57;;;;;;;8.63;4.58;;;;;;;15.08;100.00;99806.09;5231460;54;1138990;-67
2023/08/30 23:05:06;;;;;;;6.90;6.17;;;;;;;15.21;100.00;99805.10;5045536;57;1138839;-67
2023/08/30 23:10:13;;;;;;;6.92;4.22;;;;;;;15.29;100.00;99813.08;5145044;55;1138546;-65
2023/08/30 23:15:20;;;;;;;7.77;5.10;;;;;;;15.34;100.00;99809.43;5101329;56;1139405;-64